Time;durP1;ratioP1;P1;durP2;ratioP2;P2;SDS_P1;SDS_P2;PMS_P1;PMS_P2;Temp;Humidity;BMP_temperature;BMP_pressure;BME280_temperature;BME280_humidity;BME280_pressure;Samples;Min_cycle;Max_cycle;Signal;HPM_P1;HPM_P2
2022/09/28 00:02:16;;;;;;;5.22;2.90;;;;;;;21.31;52.11;101279.00;5048626;28;20029;-43
2022/09/28 00:04:42;;;;;;;6.47;3.42;;;;;;;21.04;54.53;101276.38;5050149;28;20380;-45
2022/09/28 00:07:08;;;;;;;7.32;3.58;;;;;;;21.03;56.49;101259.25;5050723;28;20029;-43
2022/09/28 00:09:34;;;;;;;8.48;4.03;;;;;;;20.93;57.15;101274.72;5033490;28;20033;-47
2022/09/28 00:12:01;;;;;;;10.30;4.20;;;;;;;20.82;57.66;101261.06;5032855;28;20482;-44
2022/09/28 00:14:27;;;;;;;7.90;3.70;;;;;;;20.77;56.08;101269.19;5047843;28;20037;-43
2022/09/28 00:16:53;;;;;;;8.60;4.18;;;;;;;20.53;57.71;101263.31;5037488;28;20029;-43
2022/09/28 00:19:19;;;;;;;7.60;4.15;;;;;;;20.60;58.56;101265.00;5032950;28;20031;-47
2022/09/28 00:21:45;;;;;;;6.78;3.80;;;;;;;20.46;59.35;101268.19;5049922;28;20037;-45
2022/09/28 00:24:16;;;;;;;9.23;4.20;;;;;;;20.49;59.42;101275.84;5053060;28;20048;-43
2022/09/28 00:26:44;;;;;;;5.57;3.83;;;;;;;20.40;59.34;101277.34;5050247;28;20041;-43
2022/09/28 00:29:23;;;;;;;7.50;4.13;;;;;;;20.25;60.06;101280.75;5052214;28;20415;-45
2022/09/28 00:32:01;;;;;;;8.57;3.88;;;;;;;19.90;61.28;101277.75;5051662;28;20043;-46
2022/09/28 00:34:32;;;;;;;6.35;4.30;;;;;;;20.01;61.97;101277.59;5052600;28;20039;-44
2022/09/28 00:36:59;;;;;;;9.32;4.30;;;;;;;19.85;62.24;101270.38;5050547;28;20125;-44
2022/09/28 00:39:26;;;;;;;10.20;4.00;;;;;;;19.68;62.80;101262.31;5051205;28;20040;-44
2022/09/28 00:41:53;;;;;;;6.60;4.10;;;;;;;19.72;62.94;101263.47;5052060;28;20100;-45
2022/09/28 00:44:46;;;;;;;8.52;4.53;;;;;;;19.71;62.76;101258.25;5051386;28;20025;-44
2022/09/28 00:47:30;;;;;;;10.00;4.80;;;;;;;19.94;62.90;101268.00;5046964;28;20033;-47
2022/09/28 00:49:59;;;;;;;11.88;5.30;;;;;;;19.89;62.39;101276.13;5051398;28;20043;-44
2022/09/28 00:52:44;;;;;;;9.98;4.47;;;;;;;20.01;62.08;101271.34;5052003;28;20044;-44
2022/09/28 00:55:18;;;;;;;6.28;4.07;;;;;;;19.91;62.36;101277.50;5051265;28;20043;-43
2022/09/28 00:57:50;;;;;;;10.10;4.68;;;;;;;19.65;62.29;101270.16;5050353;28;20155;-45
2022/09/28 01:00:17;;;;;;;7.43;3.83;;;;;;;19.85;61.82;101277.69;5051070;28;20031;-45
2022/09/28 01:02:46;;;;;;;6.20;3.90;;;;;;;19.98;61.62;101280.81;5052103;28;20025;-43
2022/09/28 01:05:14;;;;;;;8.70;4.40;;;;;;;19.88;61.64;101269.06;5044855;28;20334;-43
2022/09/28 01:07:42;;;;;;;9.88;4.63;;;;;;;19.73;62.30;101277.84;5030930;28;20049;-45
2022/09/28 01:10:09;;;;;;;7.57;4.32;;;;;;;19.69;62.57;101276.72;5048063;28;20037;-43
2022/09/28 01:12:35;;;;;;;6.28;4.00;;;;;;;19.70;62.19;101273.75;5051938;28;20024;-45
2022/09/28 01:15:03;;;;;;;5.55;4.00;;;;;;;19.62;62.45;101270.69;5042597;28;20013;-42
2022/09/28 01:17:48;;;;;;;9.52;4.13;;;;;;;19.56;62.27;101267.06;5051030;28;20056;-45
2022/09/28 01:20:26;;;;;;;9.02;5.20;;;;;;;19.55;62.66;101265.44;5048938;28;20029;-43
2022/09/28 01:23:01;;;;;;;11.52;4.40;;;;;;;19.29;64.15;101266.22;5048113;28;20036;-44
2022/09/28 01:25:38;;;;;;;10.27;4.57;;;;;;;19.28;63.77;101270.00;5050236;28;20040;-42
2022/09/28 01:28:11;;;;;;;11.75;4.63;;;;;;;19.26;63.71;101271.06;5033596;28;20033;-46
2022/09/28 01:30:48;;;;;;;14.18;5.00;;;;;;;19.08;64.74;101271.38;5046902;28;20025;-44
2022/09/28 01:33:21;;;;;;;11.77;4.47;;;;;;;19.14;63.84;101274.97;5044564;28;20481;-43
2022/09/28 01:36:04;;;;;;;9.45;4.82;;;;;;;18.89;64.28;101275.47;5033296;28;20029;-43
2022/09/28 01:38:40;;;;;;;14.05;4.95;;;;;;;19.04;63.92;101275.66;5045159;28;20481;-42
2022/09/28 01:41:08;;;;;;;11.48;4.45;;;;;;;19.02;64.28;101285.13;5051707;28;20043;-44
2022/09/28 01:43:39;;;;;;;8.65;4.25;;;;;;;18.90;64.36;101290.69;5049909;28;20029;-44
2022/09/28 01:46:06;;;;;;;9.95;5.15;;;;;;;19.16;63.80;101289.94;5051867;28;20025;-43
2022/09/28 01:48:38;;;;;;;16.25;4.60;;;;;;;19.11;64.06;101286.34;5051398;28;20021;-43
2022/09/28 01:51:10;;;;;;;11.02;4.63;;;;;;;19.17;63.33;101283.44;5034762;28;20021;-43
2022/09/28 01:53:46;;;;;;;9.73;4.22;;;;;;;18.98;63.92;101282.91;5051557;28;20032;-44
2022/09/28 01:56:27;;;;;;;10.95;4.72;;;;;;;18.69;65.18;101274.13;5051246;28;20021;-43
2022/09/28 01:59:08;;;;;;;7.65;3.58;;;;;;;18.67;65.36;101270.84;5031918;28;20022;-43
2022/09/28 02:01:46;;;;;;;7.00;4.32;;;;;;;18.32;66.82;101272.97;5036087;28;20154;-44
2022/09/28 02:04:20;;;;;;;10.38;4.28;;;;;;;18.44;66.22;101273.72;5048574;28;20030;-43
2022/09/28 02:07:22;;;;;;;8.32;4.60;;;;;;;18.15;67.48;101268.38;5038008;28;20113;-44
2022/09/28 02:09:55;;;;;;;9.15;4.55;;;;;;;18.17;67.45;101270.84;5051145;28;20452;-44
2022/09/28 02:12:44;;;;;;;4.70;3.95;;;;;;;18.02;68.18;101276.81;5048274;28;20047;-44
2022/09/28 02:15:29;;;;;;;11.25;5.00;;;;;;;18.15;67.77;101268.38;5032157;28;20116;-44
2022/09/28 02:17:56;;;;;;;5.72;4.20;;;;;;;17.96;68.31;101256.13;5042258;28;20028;-44
2022/09/28 02:20:23;;;;;;;17.02;5.20;;;;;;;18.03;68.25;101266.81;5051572;28;20040;-46
2022/09/28 02:22:54;;;;;;;16.67;4.80;;;;;;;17.95;68.51;101268.03;5050429;28;20127;-42
2022/09/28 02:25:30;;;;;;;9.65;4.35;;;;;;;18.00;68.51;101270.84;5051472;28;20412;-44
2022/09/28 02:28:08;;;;;;;9.60;4.90;;;;;;;17.69;69.24;101274.84;5050261;28;20032;-45
2022/09/28 02:30:37;;;;;;;8.43;4.53;;;;;;;17.47;70.65;101282.81;5050196;28;20021;-50
2022/09/28 02:33:28;;;;;;;8.40;4.70;;;;;;;17.48;70.30;101284.47;5050554;28;20116;-43
2022/09/28 02:35:56;;;;;;;6.35;4.10;;;;;;;17.54;69.84;101288.91;5051748;28;20021;-44
2022/09/28 02:38:22;;;;;;;9.40;4.55;;;;;;;17.32;70.52;101291.47;5054940;28;20493;-46
2022/09/28 02:41:14;;;;;;;6.82;4.32;;;;;;;17.23;70.91;101287.50;5054243;28;20036;-44
2022/09/28 02:44:28;;;;;;;9.93;4.93;;;;;;;17.24;70.86;101293.72;5054671;28;20052;-44
2022/09/28 02:47:18;;;;;;;7.22;4.70;;;;;;;17.13;71.58;101290.78;5036043;28;20112;-44
2022/09/28 02:49:58;;;;;;;6.75;4.22;;;;;;;17.21;71.57;101291.47;5052077;28;20032;-45
2022/09/28 02:52:44;;;;;;;7.32;4.20;;;;;;;17.24;71.22;101282.91;5050106;28;20028;-48
2022/09/28 02:55:22;;;;;;;10.20;4.05;;;;;;;17.17;71.40;101293.84;5054789;28;20469;-45
2022/09/28 02:58:29;;;;;;;9.32;4.60;;;;;;;17.19;71.63;101293.59;5053171;28;20045;-44
2022/09/28 03:01:27;;;;;;;8.63;5.05;;;;;;;16.79;73.54;101294.38;5053625;28;20061;-44
2022/09/28 03:04:25;;;;;;;15.38;5.05;;;;;;;16.83;73.75;101300.97;5041807;28;20052;-47
2022/09/28 03:07:05;;;;;;;13.20;4.47;;;;;;;16.70;74.21;101307.38;5045601;28;20374;-46
2022/09/28 03:09:39;;;;;;;10.02;4.45;;;;;;;16.76;73.97;101313.75;5054324;28;20033;-48
2022/09/28 03:12:18;;;;;;;8.43;4.15;;;;;;;16.78;74.22;101308.97;5052936;28;20075;-45
2022/09/28 03:14:44;;;;;;;10.30;4.55;;;;;;;16.78;74.34;101312.47;5054208;28;20028;-45
2022/09/28 03:17:11;;;;;;;7.78;4.15;;;;;;;16.93;74.11;101311.16;5051497;28;20044;-46
2022/09/28 03:19:37;;;;;;;7.93;3.92;;;;;;;16.72;74.69;101312.59;5053851;28;20082;-45
2022/09/28 03:22:04;;;;;;;9.75;4.20;;;;;;;16.59;74.96;101314.44;5052705;28;20033;-45
2022/09/28 03:24:30;;;;;;;8.90;4.03;;;;;;;16.73;74.80;101320.47;5053876;28;20024;-46
2022/09/28 03:26:56;;;;;;;9.38;4.07;;;;;;;16.82;74.37;101327.19;5052755;28;20049;-48
2022/09/28 03:29:23;;;;;;;6.40;4.15;;;;;;;16.58;75.67;101334.41;5053654;28;20055;-45
2022/09/28 03:31:49;;;;;;;6.68;4.03;;;;;;;16.60;75.80;101334.16;5052141;28;20025;-45
2022/09/28 03:34:15;;;;;;;8.27;4.30;;;;;;;16.53;76.48;101349.69;5053391;28;20037;-44
2022/09/28 03:36:41;;;;;;;10.07;4.53;;;;;;;16.59;75.70;101344.16;5052367;28;20108;-47
2022/09/28 03:39:08;;;;;;;6.63;3.97;;;;;;;16.51;76.33;101349.91;5051420;28;20037;-44
2022/09/28 03:41:34;;;;;;;7.80;4.07;;;;;;;16.70;75.53;101361.44;5052635;28;20021;-44
2022/09/28 03:44:00;;;;;;;7.05;3.90;;;;;;;16.66;75.55;101356.72;5053451;28;20115;-44
2022/09/28 03:46:26;;;;;;;5.38;3.88;;;;;;;16.72;75.59;101350.44;5052191;28;20041;-44
2022/09/28 03:48:57;;;;;;;8.43;4.03;;;;;;;16.70;75.82;101358.75;5051316;28;20033;-44
2022/09/28 03:51:23;;;;;;;4.50;3.47;;;;;;;16.64;75.66;101365.91;5053480;28;20075;-46
2022/09/28 03:53:49;;;;;;;9.32;4.18;;;;;;;16.66;75.70;101356.72;5051665;28;20027;-44
2022/09/28 03:56:16;;;;;;;9.30;3.88;;;;;;;16.64;75.53;101365.09;5052243;28;20037;-46
2022/09/28 03:58:42;;;;;;;12.60;4.68;;;;;;;16.70;75.34;101369.56;5052949;28;20024;-44
2022/09/28 04:01:11;;;;;;;6.70;4.05;;;;;;;16.54;75.88;101373.75;5049732;28;20075;-44
2022/09/28 04:03:38;;;;;;;8.93;3.88;;;;;;;16.50;76.03;101385.28;5053017;28;20028;-45
2022/09/28 04:06:04;;;;;;;7.13;4.05;;;;;;;16.56;75.25;101382.47;5046303;28;20108;-45
2022/09/28 04:08:30;;;;;;;7.80;4.18;;;;;;;16.72;74.95;101382.88;5046052;28;20051;-42
2022/09/28 04:10:58;;;;;;;6.88;4.25;;;;;;;16.57;75.15;101381.41;5043690;28;20025;-43
2022/09/28 04:13:25;;;;;;;6.70;3.90;;;;;;;16.43;75.51;101379.97;5032712;28;20124;-44
2022/09/28 04:15:55;;;;;;;8.48;4.25;;;;;;;16.57;74.66;101375.19;5039327;28;20469;-46
2022/09/28 04:18:22;;;;;;;9.73;3.85;;;;;;;16.64;74.42;101382.13;5052161;28;20036;-44
2022/09/28 04:21:02;;;;;;;5.88;3.80;;;;;;;16.75;73.46;101377.00;5041811;28;20477;-43
2022/09/28 04:23:29;;;;;;;8.23;4.10;;;;;;;16.69;73.41;101380.59;5032354;28;20037;-45
2022/09/28 04:25:55;;;;;;;8.05;3.90;;;;;;;16.49;74.55;101381.75;5037580;28;20079;-44
2022/09/28 04:31:11;;;;;;;6.63;3.70;;;;;;;16.59;74.30;101383.88;5042009;28;20082;-44
2022/09/28 04:33:37;;;;;;;9.10;3.92;;;;;;;16.57;73.99;101381.41;5044516;28;20424;-44
2022/09/28 04:36:04;;;;;;;7.97;3.92;;;;;;;16.47;74.19;101386.56;5051857;28;20021;-44
2022/09/28 04:38:31;;;;;;;6.70;3.72;;;;;;;16.49;74.21;101381.75;5045184;28;20033;-44
2022/09/28 04:40:57;;;;;;;6.90;3.40;;;;;;;16.59;73.77;101389.28;5052025;28;20035;-44
2022/09/28 04:43:24;;;;;;;7.93;3.63;;;;;;;16.39;74.61;101388.78;5045507;28;20039;-43
2022/09/28 04:45:50;;;;;;;5.55;3.90;;;;;;;16.19;75.42;101392.59;5051617;28;20071;-43
2022/09/28 04:48:16;;;;;;;9.48;4.03;;;;;;;16.31;74.91;101385.34;5049713;28;20115;-44
2022/09/28 04:50:42;;;;;;;8.88;3.88;;;;;;;16.42;74.45;101386.44;5037501;28;20036;-44
2022/09/28 04:53:08;;;;;;;8.35;4.00;;;;;;;16.29;74.65;101392.84;5031037;28;20029;-43
2022/09/28 04:55:35;;;;;;;7.43;3.47;;;;;;;16.26;74.58;101385.19;5045062;28;20051;-43
2022/09/28 04:58:03;;;;;;;9.27;3.53;;;;;;;16.13;75.53;101387.28;5048288;28;20032;-44
2022/09/28 05:00:33;;;;;;;6.07;3.80;;;;;;;16.09;75.89;101389.59;5030819;28;20110;-43
2022/09/28 05:03:00;;;;;;;7.30;4.10;;;;;;;16.17;75.97;101389.31;5032244;28;20025;-43
2022/09/28 05:05:26;;;;;;;8.40;4.03;;;;;;;16.28;75.34;101396.63;5042696;28;20039;-43
2022/09/28 05:07:55;;;;;;;8.75;4.60;;;;;;;16.25;75.51;101388.97;5051534;28;20040;-44
2022/09/28 05:10:22;;;;;;;6.45;3.80;;;;;;;16.23;75.21;101390.25;5041040;28;20037;-43
2022/09/28 05:12:48;;;;;;;5.05;3.72;;;;;;;16.05;75.66;101400.06;5031937;28;20055;-43
2022/09/28 05:15:14;;;;;;;9.35;3.97;;;;;;;16.07;76.02;101397.13;5031772;28;20036;-44
2022/09/28 05:17:40;;;;;;;9.32;4.00;;;;;;;15.87;76.38;101397.38;5029796;28;20036;-43
2022/09/28 05:20:07;;;;;;;6.50;3.78;;;;;;;16.11;75.92;101406.44;5048345;28;20029;-44
2022/09/28 05:22:34;;;;;;;7.25;3.85;;;;;;;16.07;75.56;101406.03;5049171;28;20071;-44
2022/09/28 05:25:01;;;;;;;6.63;4.40;;;;;;;15.81;76.52;101409.09;5045788;28;20058;-44
2022/09/28 05:27:27;;;;;;;5.60;3.70;;;;;;;15.90;76.46;101396.94;5045884;28;20497;-43
2022/09/28 05:29:54;;;;;;;7.90;4.30;;;;;;;15.92;75.90;101400.22;5030228;28;20175;-43
2022/09/28 05:32:20;;;;;;;7.70;3.58;;;;;;;15.94;75.97;101403.53;5031523;28;20472;-44
2022/09/28 05:34:46;;;;;;;6.00;3.80;;;;;;;15.93;75.91;101398.34;5030525;28;20029;-44
2022/09/28 05:37:12;;;;;;;6.85;4.30;;;;;;;15.79;76.83;101397.69;5031439;28;20466;-43
2022/09/28 05:39:39;;;;;;;6.85;4.45;;;;;;;15.83;77.11;101393.50;5046891;28;20043;-44
2022/09/28 05:42:06;;;;;;;7.80;4.32;;;;;;;15.72;77.64;101402.38;5032507;28;20025;-44
2022/09/28 05:44:33;;;;;;;6.55;3.78;;;;;;;15.71;77.58;101403.38;5031170;28;20041;-43
2022/09/28 05:46:59;;;;;;;9.85;3.75;;;;;;;15.77;77.27;101400.63;5040081;28;20108;-44
2022/09/28 05:49:28;;;;;;;7.47;3.95;;;;;;;15.79;76.93;101403.09;5051082;28;20052;-46
2022/09/28 05:51:54;;;;;;;5.90;3.78;;;;;;;15.65;77.45;101401.59;5043334;28;20436;-44
2022/09/28 05:54:20;;;;;;;7.70;3.85;;;;;;;15.80;76.60;101407.44;5044222;28;20029;-44
2022/09/28 05:56:46;;;;;;;6.85;3.85;;;;;;;15.74;76.61;101405.66;5043604;28;20032;-44
2022/09/28 05:59:12;;;;;;;8.38;4.28;;;;;;;15.62;76.99;101404.75;5051213;28;20538;-44
2022/09/28 06:01:39;;;;;;;5.97;3.72;;;;;;;15.58;77.04;101401.66;5037046;28;20037;-44
2022/09/28 06:04:06;;;;;;;8.10;3.80;;;;;;;15.80;75.81;101407.44;5031230;28;20095;-43
2022/09/28 06:06:34;;;;;;;5.55;3.80;;;;;;;15.64;76.20;101410.75;5035455;28;20025;-48
2022/09/28 06:09:00;;;;;;;5.68;3.90;;;;;;;15.51;76.98;101415.22;5050789;28;20104;-44
2022/09/28 06:11:27;;;;;;;8.88;4.13;;;;;;;15.43;77.06;101406.59;5045304;28;20033;-44
2022/09/28 06:13:55;;;;;;;6.80;3.70;;;;;;;15.64;76.37;101411.56;5054625;28;20035;-44
2022/09/28 06:16:22;;;;;;;8.52;4.00;;;;;;;15.64;76.30;101408.88;5048250;28;20017;-45
2022/09/28 06:18:49;;;;;;;6.65;3.38;;;;;;;15.71;76.18;101412.34;5054698;28;20614;-44
2022/09/28 06:21:15;;;;;;;5.95;3.35;;;;;;;15.69;76.27;101416.31;5048579;28;20029;-45
2022/09/28 06:23:41;;;;;;;6.53;3.30;;;;;;;15.61;76.45;101417.41;5054708;28;20029;-43
2022/09/28 06:26:08;;;;;;;5.90;4.03;;;;;;;15.85;75.54;101418.38;5052557;28;20041;-46
2022/09/28 06:28:34;;;;;;;7.72;3.58;;;;;;;15.73;75.68;101412.94;5039572;28;20038;-44
2022/09/28 06:31:00;;;;;;;7.38;3.33;;;;;;;15.61;75.53;101424.69;5034175;28;20030;-45
2022/09/28 06:33:26;;;;;;;7.03;3.63;;;;;;;15.53;75.98;101418.50;5054927;28;20029;-45
2022/09/28 06:35:53;;;;;;;6.63;3.22;;;;;;;15.64;75.95;101419.66;5050568;28;20025;-44
2022/09/28 06:38:19;;;;;;;8.35;3.33;;;;;;;15.52;76.31;101419.56;5039614;28;20033;-45
2022/09/28 06:40:45;;;;;;;6.53;3.80;;;;;;;15.62;76.21;101416.34;5042057;28;20029;-46
2022/09/28 06:43:14;;;;;;;6.57;3.70;;;;;;;15.52;75.96;101416.88;5054761;28;20021;-44
2022/09/28 06:45:42;;;;;;;3.92;3.15;;;;;;;15.59;75.64;101420.31;5039019;28;20493;-44
2022/09/28 06:48:10;;;;;;;7.63;3.47;;;;;;;15.58;75.75;101415.97;5054195;28;20036;-43
2022/09/28 06:50:40;;;;;;;6.07;3.70;;;;;;;15.50;76.40;101421.69;5053104;28;20025;-43
2022/09/28 06:53:09;;;;;;;5.95;3.35;;;;;;;15.57;75.93;101429.69;5054331;28;20026;-44
2022/09/28 06:55:39;;;;;;;5.40;3.65;;;;;;;15.38;76.46;101425.31;5054362;28;20013;-44
2022/09/28 06:58:09;;;;;;;7.97;3.83;;;;;;;15.30;76.91;101423.75;5052232;28;20021;-43
2022/09/28 07:00:37;;;;;;;5.25;4.07;;;;;;;15.25;77.08;101424.41;5054162;28;20025;-43
2022/09/28 07:03:07;;;;;;;6.45;3.85;;;;;;;15.21;77.29;101427.78;5052828;28;20020;-43
2022/09/28 07:05:35;;;;;;;9.82;4.05;;;;;;;15.20;76.96;101423.44;5052638;28;20035;-45
2022/09/28 07:08:03;;;;;;;5.70;3.40;;;;;;;15.24;76.60;101419.25;5053964;28;20048;-43
2022/09/28 07:10:30;;;;;;;6.68;4.05;;;;;;;15.37;76.21;101415.59;5052473;28;20025;-46
2022/09/28 07:13:01;;;;;;;6.88;4.32;;;;;;;15.27;76.18;101413.41;5053995;28;20025;-44
2022/09/28 07:15:28;;;;;;;8.35;4.25;;;;;;;15.31;76.02;101414.59;5052985;28;20017;-47
2022/09/28 07:18:01;;;;;;;6.57;3.90;;;;;;;15.28;76.25;101415.88;5053725;28;20362;-47
2022/09/28 07:20:28;;;;;;;5.80;4.45;;;;;;;15.43;75.30;101422.78;5052896;28;20110;-46
2022/09/28 07:22:56;;;;;;;8.57;4.50;;;;;;;15.34;75.66;101419.56;5052927;28;20040;-46
2022/09/28 07:25:24;;;;;;;9.35;4.18;;;;;;;15.25;76.14;101415.50;5052217;28;20049;-44
2022/09/28 07:27:58;;;;;;;9.05;4.65;;;;;;;15.09;77.14;101416.06;5053172;28;20072;-44
2022/09/28 07:30:31;;;;;;;7.30;5.03;;;;;;;15.16;76.58;101414.16;5052517;28;20040;-44
2022/09/28 07:32:58;;;;;;;5.35;3.92;;;;;;;14.95;77.53;101423.47;5049262;28;20021;-44
2022/09/28 07:35:25;;;;;;;8.20;4.88;;;;;;;15.08;76.93;101425.22;5046957;28;20495;-43
2022/09/28 07:38:05;;;;;;;11.02;4.78;;;;;;;15.17;76.16;101424.72;5053051;28;20075;-45
2022/09/28 07:43:22;;;;;;;9.73;4.03;;;;;;;15.14;76.37;101433.22;5054047;28;20407;-46
2022/09/28 07:45:50;;;;;;;8.27;4.20;;;;;;;15.09;76.64;101434.94;5051274;28;20021;-43
2022/09/28 07:48:17;;;;;;;8.52;4.40;;;;;;;14.98;77.29;101434.63;5053384;28;20017;-44
2022/09/28 07:50:51;;;;;;;6.57;4.30;;;;;;;14.89;77.82;101429.75;5051904;28;20033;-44
2022/09/28 07:53:21;;;;;;;7.60;3.75;;;;;;;15.07;77.00;101426.25;5051448;28;20029;-43
2022/09/28 07:55:54;;;;;;;6.93;3.83;;;;;;;14.74;78.65;101428.19;5050328;28;20032;-43
2022/09/28 07:58:21;;;;;;;7.47;4.07;;;;;;;14.74;79.16;101420.09;5053317;28;20028;-43
2022/09/28 08:00:49;;;;;;;10.43;3.80;;;;;;;14.84;78.87;101419.63;5051907;28;20029;-43
2022/09/28 08:03:23;;;;;;;11.40;4.00;;;;;;;14.80;78.89;101418.41;5053443;28;20126;-43
2022/09/28 08:05:49;;;;;;;9.38;3.85;;;;;;;14.75;79.19;101419.03;5052059;28;20041;-43
2022/09/28 08:08:15;;;;;;;7.57;3.90;;;;;;;14.86;79.25;101420.22;5053282;28;20028;-43
2022/09/28 08:10:43;;;;;;;8.13;3.97;;;;;;;15.03;77.94;101420.47;5050539;28;20035;-43
2022/09/28 08:13:09;;;;;;;9.43;3.67;;;;;;;14.90;78.40;101417.91;5052968;28;20033;-44
2022/09/28 08:15:35;;;;;;;7.10;3.72;;;;;;;14.88;78.36;101428.91;5050625;28;20504;-43
2022/09/28 08:18:05;;;;;;;6.13;3.42;;;;;;;14.88;78.39;101425.38;5052596;28;20100;-44
2022/09/28 08:23:17;;;;;;;8.73;4.07;;;;;;;14.79;78.79;101436.44;5051048;28;20680;-45
2022/09/28 08:25:48;;;;;;;9.27;3.67;;;;;;;14.89;78.41;101433.25;5052389;28;20477;-44
2022/09/28 08:28:18;;;;;;;6.90;3.85;;;;;;;14.73;79.21;101429.22;5050372;28;20420;-45
2022/09/28 08:30:46;;;;;;;4.95;3.67;;;;;;;14.68;79.07;101429.06;5053105;28;20159;-43
2022/09/28 08:33:13;;;;;;;5.93;3.17;;;;;;;14.73;78.91;101423.84;5050921;28;20021;-43
2022/09/28 08:35:40;;;;;;;5.55;3.97;;;;;;;14.51;80.00;101412.59;5052360;28;20024;-43
2022/09/28 08:38:07;;;;;;;8.82;3.95;;;;;;;14.63;79.78;101423.50;5050667;28;20029;-43
2022/09/28 08:41:08;;;;;;;8.23;3.70;;;;;;;14.88;78.99;101426.22;5052287;28;20029;-44
2022/09/28 08:43:59;;;;;;;6.93;4.00;;;;;;;14.73;79.31;101423.84;5050704;28;20501;-43
2022/09/28 08:46:36;;;;;;;7.95;4.82;;;;;;;14.69;79.66;101425.31;5050468;28;20087;-43
2022/09/28 08:49:15;;;;;;;6.95;4.75;;;;;;;14.69;79.97;101422.63;5052563;28;20036;-44
2022/09/28 08:51:45;;;;;;;11.25;4.70;;;;;;;14.66;79.85;101424.94;5050295;28;20024;-44
2022/09/28 08:54:40;;;;;;;11.93;5.13;;;;;;;14.75;79.85;101423.63;5051895;28;20104;-43
2022/09/28 08:57:46;;;;;;;7.40;5.20;;;;;;;14.52;80.66;101433.09;5050891;28;20052;-46
2022/09/28 09:00:48;;;;;;;8.02;5.45;;;;;;;14.51;80.65;101428.75;5010329;28;20271;-45
2022/09/28 09:03:38;;;;;;;10.48;5.45;;;;;;;14.57;80.65;101435.16;5039822;28;20112;-44
2022/09/28 09:06:38;;;;;;;8.40;5.00;;;;;;;14.61;80.31;101435.56;5051821;28;20029;-44
2022/09/28 09:09:22;;;;;;;7.35;5.60;;;;;;;14.53;80.65;101428.53;5047753;28;20079;-46
2022/09/28 09:12:07;;;;;;;8.48;5.47;;;;;;;14.34;81.72;101424.09;5050442;28;20102;-45
2022/09/28 09:15:00;;;;;;;11.70;6.32;;;;;;;14.48;80.71;101422.97;5050094;28;20036;-44
2022/09/28 09:17:34;;;;;;;8.38;5.28;;;;;;;14.44;80.68;101416.38;5049767;28;20037;-46
2022/09/28 09:20:26;;;;;;;9.75;5.20;;;;;;;14.36;81.26;101425.50;5050636;28;20031;-47
2022/09/28 09:23:09;;;;;;;8.05;5.28;;;;;;;14.29;81.44;101426.59;5048029;28;20041;-42
2022/09/28 09:25:48;;;;;;;13.98;5.82;;;;;;;14.38;81.37;101434.22;5050173;28;20048;-44
2022/09/28 09:28:39;;;;;;;14.95;6.22;;;;;;;14.31;81.94;101430.72;5051784;28;20422;-43
2022/09/28 09:31:25;;;;;;;13.23;5.70;;;;;;;14.16;82.85;101428.34;5048988;28;20035;-45
2022/09/28 09:34:06;;;;;;;10.40;5.95;;;;;;;14.25;81.95;101431.59;5039650;28;20120;-43
2022/09/28 09:37:04;;;;;;;7.97;5.45;;;;;;;14.30;81.58;101429.06;5047541;28;20029;-43
2022/09/28 09:39:54;;;;;;;11.10;4.88;;;;;;;14.33;81.94;101420.56;5049740;28;20028;-44
2022/09/28 09:42:38;;;;;;;9.68;5.43;;;;;;;14.37;82.02;101419.06;5051538;28;20541;-45
2022/09/28 09:45:13;;;;;;;10.82;5.15;;;;;;;14.35;82.48;101414.97;5050848;28;20061;-45
2022/09/28 09:47:47;;;;;;;6.93;5.05;;;;;;;14.36;81.89;101420.13;5050956;28;20154;-44
2022/09/28 09:50:28;;;;;;;12.07;5.20;;;;;;;14.29;82.28;101416.66;5050976;28;20071;-43
2022/09/28 09:52:58;;;;;;;6.07;4.63;;;;;;;14.38;82.00;101415.38;5049240;28;20078;-43
2022/09/28 09:55:33;;;;;;;8.25;5.10;;;;;;;14.37;82.30;101419.06;5051586;28;20032;-45
2022/09/28 09:58:13;;;;;;;7.53;4.80;;;;;;;14.44;82.10;101417.19;5049675;28;20033;-44
2022/09/28 10:00:48;;;;;;;8.73;4.65;;;;;;;14.33;82.22;101417.06;5049210;28;20033;-44
2022/09/28 10:03:21;;;;;;;7.30;5.25;;;;;;;14.31;82.58;101419.94;5051316;28;20025;-43
2022/09/28 10:05:55;;;;;;;13.27;4.97;;;;;;;14.26;83.38;101427.84;5049175;28;20520;-43
2022/09/28 10:08:23;;;;;;;9.55;5.82;;;;;;;14.24;83.55;101420.00;5051446;28;20358;-43
2022/09/28 10:10:55;;;;;;;13.02;4.55;;;;;;;14.26;83.26;101417.91;5049562;28;20534;-43
2022/09/28 10:13:22;;;;;;;9.05;4.93;;;;;;;14.29;83.27;101422.03;5051291;28;20108;-43
2022/09/28 10:15:50;;;;;;;6.97;4.70;;;;;;;14.20;83.37;101418.75;5049357;28;20025;-43
2022/09/28 10:18:20;;;;;;;5.80;4.03;;;;;;;14.17;83.98;101418.38;5051346;28;20040;-43
2022/09/28 10:20:47;;;;;;;8.38;4.47;;;;;;;14.19;83.36;101427.06;5049204;28;20092;-43
2022/09/28 10:23:36;;;;;;;7.07;4.50;;;;;;;14.25;83.41;101421.63;5051266;28;20021;-44
2022/09/28 10:26:21;;;;;;;6.75;4.68;;;;;;;14.31;83.07;101422.63;5047560;28;20462;-43
2022/09/28 10:28:54;;;;;;;11.52;4.47;;;;;;;14.26;83.43;101417.06;5051280;28;20091;-44
2022/09/28 10:31:40;;;;;;;10.18;5.25;;;;;;;14.12;84.40;101418.22;5050244;28;20098;-45
2022/09/28 10:34:12;;;;;;;12.60;4.70;;;;;;;14.09;84.59;101411.38;5036015;28;20026;-44
2022/09/28 10:37:02;;;;;;;8.75;5.43;;;;;;;14.09;84.93;101414.06;5050619;28;20354;-44
2022/09/28 10:39:31;;;;;;;9.32;4.32;;;;;;;14.05;84.70;101412.00;5049210;28;20138;-44
2022/09/28 10:42:02;;;;;;;8.30;4.60;;;;;;;14.07;85.12;101407.25;5049766;28;20081;-46
2022/09/28 10:44:33;;;;;;;7.65;4.50;;;;;;;14.17;84.50;101413.00;5051286;28;20107;-45
2022/09/28 10:47:02;;;;;;;8.30;4.05;;;;;;;14.19;84.13;101411.72;5047964;28;20025;-44
2022/09/28 10:49:38;;;;;;;8.38;4.80;;;;;;;14.19;84.47;101408.22;5050779;28;20029;-44
2022/09/28 10:52:07;;;;;;;8.63;4.50;;;;;;;14.15;84.63;101405.13;5049686;28;20170;-43
2022/09/28 10:54:33;;;;;;;8.40;4.43;;;;;;;14.12;84.58;101402.88;5049662;28;20033;-43
2022/09/28 10:57:00;;;;;;;11.85;4.68;;;;;;;14.27;84.34;101399.91;5050627;28;20040;-45
2022/09/28 10:59:29;;;;;;;7.47;4.47;;;;;;;14.16;85.20;101404.09;5052460;28;20489;-43
2022/09/28 11:02:00;;;;;;;15.00;4.57;;;;;;;14.22;84.88;101397.03;5052324;28;20060;-46
2022/09/28 11:04:39;;;;;;;8.27;4.22;;;;;;;14.23;85.06;101404.06;5052157;28;20025;-43
2022/09/28 11:07:16;;;;;;;6.57;3.85;;;;;;;14.31;84.52;101405.66;5053930;28;20033;-48
2022/09/28 11:09:48;;;;;;;8.93;3.92;;;;;;;14.34;84.37;101410.63;5052278;28;20021;-45
2022/09/28 11:12:18;;;;;;;9.43;4.05;;;;;;;14.26;84.62;101409.00;5066305;28;20056;-44
2022/09/28 11:14:47;;;;;;;7.70;4.38;;;;;;;14.29;84.22;101413.97;5052663;28;20025;-46
2022/09/28 11:17:28;;;;;;;10.93;4.22;;;;;;;14.39;83.82;101406.25;5053595;28;20028;-43
2022/09/28 11:19:57;;;;;;;8.43;4.43;;;;;;;14.42;83.49;101411.16;5052165;28;20112;-44
2022/09/28 11:22:39;;;;;;;7.38;4.70;;;;;;;14.45;83.12;101397.28;5053986;28;20021;-47
2022/09/28 11:25:32;;;;;;;10.15;4.88;;;;;;;14.33;83.68;101408.97;5051863;28;20047;-44
2022/09/28 11:28:03;;;;;;;7.55;4.68;;;;;;;14.30;83.54;101398.63;5049863;28;20123;-45
2022/09/28 11:30:48;;;;;;;7.72;4.80;;;;;;;14.36;83.52;101403.97;5051872;28;20037;-47
2022/09/28 11:33:41;;;;;;;7.32;4.57;;;;;;;14.49;82.52;101387.75;5043942;28;20031;-48
2022/09/28 11:36:32;;;;;;;10.02;5.38;;;;;;;14.51;82.98;101401.00;5051341;28;20633;-48
2022/09/28 11:39:28;;;;;;;9.85;5.00;;;;;;;14.39;83.37;101400.03;5057746;28;20037;-43
2022/09/28 11:42:06;;;;;;;9.18;4.75;;;;;;;14.44;82.74;101398.34;5053845;28;20068;-44
2022/09/28 11:44:45;;;;;;;8.60;5.07;;;;;;;14.34;83.58;101397.97;5041013;28;20457;-42
2022/09/28 11:47:48;;;;;;;8.77;5.30;;;;;;;14.28;83.94;101404.25;5033074;28;20033;-42
2022/09/28 11:50:55;;;;;;;11.20;5.43;;;;;;;14.48;83.13;101407.63;5049468;28;20048;-42
2022/09/28 11:53:26;;;;;;;;;;;;;;;14.59;82.25;101402.59;5049657;28;20060;-42
2022/09/28 11:55:59;;;;;;;9.70;4.82;;;;;;;14.55;82.12;101404.06;5036197;28;19909;-42
2022/09/28 11:58:48;;;;;;;7.90;3.85;;;;;;;14.52;81.98;101406.16;5035936;28;20034;-46
2022/09/28 12:01:27;;;;;;;6.93;3.53;;;;;;;14.35;82.21;101410.41;5041510;28;20032;-42